ARKANSAS RIVER NAVIGATION REPORT
  LITTLE ROCK DISTRICT - U.S. ARMY CORPS OF ENGINEERS
  GENERATED: 02 FEB 2023 @ 11:36
 
  NOTE: These data are not guaranteed to be valid or correct.
        RELEASES AND FLOWS ARE IN THOUSANDS OF CFS
  _____________________________________________________________________________
 
                   1FEB      1FEB       1FEB            2FEB           2FEB
                  @1200     @2400     AVERAGE      LATEST OBSERVED    PRECIP.
                  HOURS     HOURS      FLOW         DATA AND TIME     (7A-7A)
  _____________________________________________________________________________
 
  LD13 HW-ELEV    391.86    391.49                391.71  @  10:00      0.00
  LD13 TW-ELEV    372.32    371.37                372.39  @  10:00
  LD13 RELEASE     24.9        .1      12.1        26.1   @  10:00
 
  OZA.L&D HW-ELEV 371.55    371.73                371.25  @  10:00      0.00
  OZA.L&D TW-ELEV 337.96    338.78                338.86  @  10:00
  OZA.L&D RELEASE   0.0      16.4      13.1        16.7   @  10:00
 
  DRD.L&D HW-ELEV 338.12    337.97                337.76  @  10:00      0.00
  DRD.L&D TW-ELEV 286.76    287.69                288.73  @  10:00
  DRD.L&D RELEASE  18.0      18.3      15.7        30.8   @  10:00
 
  LD09 HW-ELEV    286.18    287.00                286.91  @  10:00       .38
  LD09 TW-ELEV    265.40    265.95                267.22  @  10:00
  LD09 RELEASE     14.0      17.5      17.0        32.6   @  10:00
 
  LD08 HW-ELEV    264.97    265.35                265.20  @  10:00      0.00
  LD08 TW-ELEV    251.01    251.19                253.01  @  10:00
  LD08 RELEASE     21.4      24.0      23.7        38.4   @  10:00
 
  LD07 HW-ELEV    249.20    249.25                249.27  @  10:00      0.00
  LD07 TW-ELEV    231.16    231.54                231.52  @  10:00
  LD07 RELEASE     27.3      32.4      33.4        38.3   @  10:00
 
  LD06 HW-ELEV    231.17    231.21                231.12  @  10:00      0.00
  LD06 TW-ELEV    214.05    214.12                214.68  @  10:00
  LD06 RELEASE     30.3      33.3      34.1        40.1   @  10:00
 
  LD05 HW-ELEV    213.18    212.99                213.14  @  10:00      0.00
  LD05 TW-ELEV    196.67    196.63                197.26  @  10:00
  LD05 RELEASE     31.8      34.8      39.2        39.3   @  10:00
 
  LD04 HW-ELEV    196.20    196.04                196.27  @  10:00      0.00
  LD04 TW-ELEV    183.05    183.10                183.58  @  10:00
  LD04 RELEASE     31.9      31.6      39.2        43.0   @  10:00
 
  LD03 HW-ELEV    182.22    182.13                182.23  @   8:00      0.00
  LD03 TW-ELEV    166.71    165.50                165.67  @   8:00
  LD03 RELEASE     32.5      32.2      39.8        36.8   @   8:00
 
  L02 HW-ELEV     162.10    162.19                162.06  @  10:00      0.00
 
  D02 HW-ELEV     161.92    162.10                161.88  @  10:00      0.00
  D02 TW-ELEV     133.29    130.40                131.30  @  10:00
  D02 RELEASE      60.9      41.5      53.8        45.7   @   8:00
 
  L01 TW-ELEV     134.95    134.81                134.64  @   7:00      0.00
 
  MPLD HW-ELEV    133.49    133.34                133.17  @  10:00      0.00	
  MPLD TW-ELEV    133.44    133.26                133.08  @  10:00
 
  WREC DIFF.        1.45      1.47                  1.47
  CLARENDON FLOW   43.49     44.37     43.55       45.13  @  10:00
  HELENA STAGE     21.58     21.38                 21.32  @  10:00
  CAIRO STAGE      28.69     28.50                 28.27  @  10:00
  _____________________________________________________________________________